Decoded Metar for YPPH (PERTH in AUSTRALIA) (IATA:PER) | Meteo·Mobile Aviation Weather
aviador You're here:

YPPH Decoded Metar

PERTH in AUSTRALIA
Report Time2018-12-14 12:00:00
UTC Time2018-12-14 12:31:14
Flight Rules vfr VFR
Wind210° at 13 kt
W.Decomp.*RWY 21: 13.0 kt HW 0.5 kt RCW
RWY 24: 11.5 kt HW 6.1 kt LCW
W.Rank210° ranks 3
Current wind is above 210° avg. (9.5)
Visibility9999 m
Phenomena:Thuderstorm Rain
Clouds:N/A
Expected CloudBase > 6,400 ft AGL from Temp-Dew spread
CeilingNone
Temp27°C (ISA +12)
Dew Point11°C (37% RH)
Heat Index26.7°C
AAT22.7°C
QNH1005 hPa
Density Alt1,883 ft
Elevation43 ft
Report Wrong Elevation
Raw Report
METAR YPPH 141200Z 21013KT CAVOK 27/11 Q1005
INTER 1400/1500 8000 TSRA FEW130CB=

Extra information for YPPH:More info

Metar Taf Metar & Taf Last 4 Metars F.Rules Stats Wind Profile Meteogram Temp Stats Airport Information Weather charts Add Link Nearby VenuesMetar ALERT Operation Metar Decoded Social comments